createdAt,value
2017-11-09T00:00:01.877Z,100644.36
2017-11-09T00:03:03.306Z,100657.52
2017-11-09T00:06:11.348Z,100653.09
2017-11-09T00:09:12.712Z,100660.16
2017-11-09T00:12:14.109Z,100655.80
2017-11-09T00:15:15.554Z,100660.20
2017-11-09T00:18:17.748Z,100662.38
2017-11-09T00:21:19.093Z,100648.75
2017-11-09T00:24:21.248Z,100646.16
2017-11-09T00:27:29.704Z,100657.57
2017-11-09T00:30:31.081Z,100654.49
2017-11-09T00:33:32.438Z,100651.38
2017-11-09T00:36:33.846Z,100644.41
2017-11-09T00:39:35.984Z,100651.91
2017-11-09T00:42:38.127Z,100653.59
2017-11-09T00:45:39.568Z,100650.09
2017-11-09T00:48:40.897Z,100654.11
2017-11-09T00:51:42.269Z,100660.21
2017-11-09T00:54:43.599Z,100665.06
2017-11-09T00:57:44.944Z,100657.28
2017-11-09T01:00:46.315Z,100669.48
2017-11-09T01:03:47.723Z,100666.78
2017-11-09T01:06:49.087Z,100670.30
2017-11-09T01:09:50.554Z,100675.61
2017-11-09T01:12:51.943Z,100681.41
2017-11-09T01:15:53.320Z,100676.59
2017-11-09T01:18:55.434Z,100676.98
2017-11-09T01:21:56.770Z,100676.05
2017-11-09T01:24:58.162Z,100676.90
2017-11-09T01:27:59.483Z,100679.95
2017-11-09T01:31:01.018Z,100676.02
2017-11-09T01:34:02.440Z,100674.20
2017-11-09T01:37:04.539Z,100671.99
2017-11-09T01:40:05.958Z,100676.02
2017-11-09T01:43:08.118Z,100682.07
2017-11-09T01:46:09.510Z,100691.77
2017-11-09T01:49:10.870Z,100685.59
2017-11-09T01:52:12.227Z,100684.86
2017-11-09T01:55:13.609Z,100681.75
2017-11-09T01:58:14.955Z,100678.30
2017-11-09T02:01:16.427Z,100680.91
2017-11-09T02:04:17.877Z,100682.58
2017-11-09T02:07:19.362Z,100693.62
2017-11-09T02:10:20.754Z,100690.53
2017-11-09T02:13:22.155Z,100693.17
2017-11-09T02:16:24.319Z,100688.37
2017-11-09T02:19:26.500Z,100690.58
2017-11-09T02:22:27.926Z,100699.84
2017-11-09T02:25:29.386Z,100688.01
2017-11-09T02:28:31.494Z,100692.86
2017-11-09T02:31:32.952Z,100687.95
2017-11-09T02:34:34.424Z,100686.16
2017-11-09T02:37:35.812Z,100694.05
2017-11-09T02:40:38.043Z,100700.23
2017-11-09T02:43:39.611Z,100702.92
2017-11-09T02:46:41.059Z,100703.39
2017-11-09T02:49:42.517Z,100696.77
2017-11-09T02:52:43.969Z,100707.28
2017-11-09T02:55:45.421Z,100708.22
2017-11-09T02:58:46.860Z,100713.52
2017-11-09T03:01:49.009Z,100708.69
2017-11-09T03:04:50.408Z,100704.70
2017-11-09T03:07:51.826Z,100712.12
2017-11-09T03:10:53.209Z,100708.22
2017-11-09T03:13:54.572Z,100713.45
2017-11-09T03:16:56.673Z,100712.09
2017-11-09T03:19:58.088Z,100706.55
2017-11-09T03:23:00.232Z,100706.02
2017-11-09T03:26:01.590Z,100706.91
2017-11-09T03:29:02.996Z,100702.07
2017-11-09T03:32:04.356Z,100705.57
2017-11-09T03:35:05.785Z,100699.42
2017-11-09T03:38:07.133Z,100693.69
2017-11-09T03:41:08.507Z,100706.99
2017-11-09T03:44:09.964Z,100702.94
2017-11-09T03:47:11.403Z,100705.07
2017-11-09T03:50:12.828Z,100701.55
2017-11-09T03:53:14.926Z,100712.52
2017-11-09T03:56:16.273Z,100717.44
2017-11-09T03:59:17.663Z,100709.94
2017-11-09T04:02:19.012Z,100717.49
2017-11-09T04:05:20.403Z,100728.91
2017-11-09T04:08:22.615Z,100720.52
2017-11-09T04:11:23.969Z,100717.00
2017-11-09T04:14:25.379Z,100719.19
2017-11-09T04:17:27.510Z,100728.52
2017-11-09T04:20:28.931Z,100726.31
2017-11-09T04:23:30.302Z,100716.55
2017-11-09T04:26:31.668Z,100720.91
2017-11-09T04:29:33.187Z,100717.48
2017-11-09T04:32:34.534Z,100710.38
2017-11-09T04:35:35.898Z,100716.55
2017-11-09T04:38:37.300Z,100722.71
2017-11-09T04:41:39.438Z,100720.83
2017-11-09T04:44:40.937Z,100710.36
2017-11-09T04:47:42.298Z,100716.60
2017-11-09T04:50:43.641Z,100722.78
2017-11-09T04:53:45.032Z,100735.51
2017-11-09T04:56:46.346Z,100715.30
2017-11-09T04:59:47.750Z,100722.37
2017-11-09T05:02:49.321Z,100719.71
2017-11-09T05:05:50.738Z,100724.04
2017-11-09T05:08:52.077Z,100710.81
2017-11-09T05:11:53.466Z,100721.91
2017-11-09T05:14:54.800Z,100721.83
2017-11-09T05:17:56.135Z,100712.14
2017-11-09T05:20:57.587Z,100719.17
2017-11-09T05:23:58.939Z,100724.04
2017-11-09T05:27:00.329Z,100731.03
2017-11-09T05:30:02.536Z,100733.19
2017-11-09T05:33:03.868Z,100730.72
2017-11-09T05:36:05.249Z,100731.61
2017-11-09T05:39:06.589Z,100734.75
2017-11-09T05:42:07.960Z,100727.26
2017-11-09T05:45:09.361Z,100730.28
2017-11-09T05:48:11.423Z,100730.98
2017-11-09T05:51:13.570Z,100734.77
2017-11-09T05:54:15.009Z,100738.30
2017-11-09T05:57:16.435Z,100737.02
2017-11-09T06:00:17.846Z,100743.97
2017-11-09T06:03:20.016Z,100745.36
2017-11-09T06:06:22.159Z,100740.57
2017-11-09T06:09:23.645Z,100748.44
2017-11-09T06:12:25.056Z,100737.49
2017-11-09T06:15:26.457Z,100749.83
2017-11-09T06:18:27.834Z,100751.41
2017-11-09T06:21:29.213Z,100743.14
2017-11-09T06:24:30.652Z,100744.80
2017-11-09T06:27:32.035Z,100747.43
2017-11-09T06:30:33.440Z,100746.98
2017-11-09T06:33:34.946Z,100747.88
2017-11-09T06:36:37.081Z,100742.70
2017-11-09T06:39:38.511Z,100750.16
2017-11-09T06:42:39.841Z,100759.41
2017-11-09T06:45:41.291Z,100767.37
2017-11-09T06:48:42.697Z,100757.38
2017-11-09T06:51:44.087Z,100759.08
2017-11-09T06:54:46.191Z,100768.22
2017-11-09T06:57:47.562Z,100769.16
2017-11-09T07:00:48.956Z,100768.22
2017-11-09T07:03:51.075Z,100771.75
2017-11-09T07:06:52.519Z,100778.31
2017-11-09T07:09:53.984Z,100776.53
2017-11-09T07:12:55.366Z,100782.77
2017-11-09T07:15:56.782Z,100795.31
2017-11-09T07:18:58.091Z,100789.09
2017-11-09T07:21:59.444Z,100786.33
2017-11-09T07:25:00.815Z,100799.80
2017-11-09T07:28:02.125Z,100796.59
2017-11-09T07:31:04.228Z,100797.22
2017-11-09T07:34:05.606Z,100809.63
2017-11-09T07:37:06.979Z,100810.02
2017-11-09T07:40:08.353Z,100804.78
2017-11-09T07:43:09.701Z,100805.37
2017-11-09T07:46:11.788Z,100802.03
2017-11-09T07:49:13.132Z,100799.33
2017-11-09T07:52:14.477Z,100801.16
2017-11-09T07:55:15.788Z,100796.98
2017-11-09T07:58:17.149Z,100804.75
2017-11-09T08:01:19.214Z,100800.39
2017-11-09T08:04:20.523Z,100798.23
2017-11-09T08:07:22.015Z,100807.70
2017-11-09T08:10:23.337Z,100804.64
2017-11-09T08:13:25.441Z,100805.14
2017-11-09T08:16:27.485Z,100803.33
2017-11-09T08:19:28.929Z,100802.30
2017-11-09T08:22:30.205Z,100815.48
2017-11-09T08:25:36.087Z,100818.23
2017-11-09T08:28:40.221Z,100823.61
2017-11-09T08:31:47.551Z,100824.58
2017-11-09T08:34:51.158Z,100825.66
2017-11-09T08:37:52.470Z,100835.42
2017-11-09T08:40:53.858Z,100830.36
2017-11-09T08:43:55.329Z,100842.47
2017-11-09T08:46:56.881Z,100839.57
2017-11-09T08:49:58.196Z,100833.47
2017-11-09T08:52:59.511Z,100841.52
2017-11-09T08:56:00.853Z,100836.72
2017-11-09T08:59:02.187Z,100835.48
2017-11-09T09:02:03.544Z,100837.05
2017-11-09T09:05:05.624Z,100827.16
2017-11-09T09:08:06.959Z,100834.63
2017-11-09T09:11:09.034Z,100840.47
2017-11-09T09:14:10.384Z,100844.42
2017-11-09T09:17:12.427Z,100844.30
2017-11-09T09:20:13.802Z,100844.38
2017-11-09T09:23:15.269Z,100841.23
2017-11-09T09:26:19.579Z,100844.55
2017-11-09T09:29:21.820Z,100837.39
2017-11-09T09:32:25.478Z,100829.59
2017-11-09T09:35:35.664Z,100838.48
2017-11-09T09:38:41.805Z,100835.16
2017-11-09T09:41:43.976Z,100841.64
2017-11-09T09:44:45.421Z,100829.24
2017-11-09T09:47:46.754Z,100839.56
2017-11-09T09:50:48.140Z,100831.47
2017-11-09T09:53:49.477Z,100832.12
2017-11-09T09:56:50.909Z,100824.01
2017-11-09T09:59:52.331Z,100821.25
2017-11-09T10:02:54.470Z,100827.22
2017-11-09T10:05:55.840Z,100830.77
2017-11-09T10:08:57.193Z,100826.00
2017-11-09T10:11:58.548Z,100833.36
2017-11-09T10:15:00.676Z,100839.11
2017-11-09T10:18:01.979Z,100822.59
2017-11-09T10:21:04.059Z,100824.63
2017-11-09T10:24:05.405Z,100839.27
2017-11-09T10:27:07.477Z,100824.87
2017-11-09T10:30:08.842Z,100822.41
2017-11-09T10:33:10.171Z,100818.22
2017-11-09T10:36:13.872Z,100806.67
2017-11-09T10:39:15.751Z,100822.28
2017-11-09T10:42:17.160Z,100816.22
2017-11-09T10:45:18.564Z,100803.41
2017-11-09T10:48:19.878Z,100807.17
2017-11-09T10:51:21.981Z,100800.23
2017-11-09T10:54:23.327Z,100798.56
2017-11-09T10:57:24.684Z,100785.57
2017-11-09T11:00:32.156Z,100805.00
2017-11-09T11:03:33.509Z,100804.58
2017-11-09T11:06:35.602Z,100801.57
2017-11-09T11:09:36.959Z,100805.02
2017-11-09T11:12:38.274Z,100802.61
2017-11-09T11:15:40.378Z,100802.11
2017-11-09T11:18:42.242Z,100795.58
2017-11-09T11:21:43.583Z,100797.33
2017-11-09T11:24:44.900Z,100795.03
2017-11-09T11:27:46.948Z,100787.14
2017-11-09T11:30:48.282Z,100787.70
2017-11-09T11:33:49.631Z,100781.59
2017-11-09T11:36:50.990Z,100787.32
2017-11-09T11:39:52.354Z,100793.06
2017-11-09T11:42:53.790Z,100787.05
2017-11-09T11:45:55.107Z,100782.82
2017-11-09T11:48:56.487Z,100780.69
2017-11-09T11:51:57.796Z,100774.91
2017-11-09T11:54:59.100Z,100780.33
2017-11-09T11:58:00.494Z,100775.08
2017-11-09T12:01:01.837Z,100785.97
2017-11-09T12:04:03.151Z,100763.69
2017-11-09T12:10:14.716Z,100766.77
2017-11-09T12:13:18.063Z,100759.05
2017-11-09T12:16:20.107Z,100764.09
2017-11-09T12:19:21.436Z,100751.33
2017-11-09T12:22:22.826Z,100760.73
2017-11-09T12:25:24.890Z,100766.70
2017-11-09T12:28:26.361Z,100776.73
2017-11-09T12:31:28.374Z,100768.32
2017-11-09T12:34:29.737Z,100756.63
2017-11-09T12:37:31.029Z,100755.19
2017-11-09T12:40:33.146Z,100749.30
2017-11-09T12:43:34.477Z,100753.60
2017-11-09T12:46:35.827Z,100747.16
2017-11-09T12:49:37.256Z,100746.73
2017-11-09T12:52:38.665Z,100761.41
2017-11-09T12:55:40.048Z,100756.86
2017-11-09T12:58:42.140Z,100757.76
2017-11-09T13:01:43.461Z,100761.66
2017-11-09T13:04:45.559Z,100751.70
2017-11-09T13:07:46.887Z,100750.33
2017-11-09T13:10:48.268Z,100745.30
2017-11-09T13:13:49.628Z,100755.95
2017-11-09T13:16:51.097Z,100749.23
2017-11-09T13:19:52.548Z,100746.23
2017-11-09T13:22:53.937Z,100748.32
2017-11-09T13:25:55.309Z,100750.25
2017-11-09T13:28:56.600Z,100757.58
2017-11-09T13:31:57.937Z,100758.70
2017-11-09T13:34:59.231Z,100760.67
2017-11-09T13:38:01.316Z,100769.73
2017-11-09T13:41:02.649Z,100768.69
2017-11-09T13:44:04.736Z,100772.81
2017-11-09T13:47:06.071Z,100776.78
2017-11-09T13:50:08.156Z,100778.37
2017-11-09T13:53:09.487Z,100787.80
2017-11-09T13:56:11.549Z,100778.48
2017-11-09T13:59:13.618Z,100784.72
2017-11-09T14:02:15.652Z,100781.09
2017-11-09T14:05:17.012Z,100786.29
2017-11-09T14:08:18.322Z,100787.18
2017-11-09T14:11:19.698Z,100785.05
2017-11-09T14:14:21.028Z,100795.88
2017-11-09T14:17:22.402Z,100786.22
2017-11-09T14:20:23.819Z,100773.91
2017-11-09T14:23:25.184Z,100777.63
2017-11-09T14:26:26.619Z,100767.92
2017-11-09T14:29:27.980Z,100770.06
2017-11-09T14:32:29.376Z,100760.66
2017-11-09T14:35:30.741Z,100767.36
2017-11-09T14:38:35.787Z,100766.50
2017-11-09T14:41:37.128Z,100761.05
2017-11-09T14:44:39.257Z,100761.22
2017-11-09T14:47:40.643Z,100761.13
2017-11-09T14:50:42.799Z,100763.53
2017-11-09T14:53:44.131Z,100776.86
2017-11-09T14:56:45.524Z,100766.55
2017-11-09T14:59:46.860Z,100757.33
2017-11-09T15:02:49.003Z,100763.63
2017-11-09T15:05:50.426Z,100767.34
2017-11-09T15:08:51.792Z,100766.55
2017-11-09T15:11:53.218Z,100772.01
2017-11-09T15:14:54.597Z,100771.12
2017-11-09T15:17:55.982Z,100752.58
2017-11-09T15:20:58.115Z,100742.45
2017-11-09T15:23:59.469Z,100747.36
2017-11-09T15:27:01.577Z,100745.87
2017-11-09T15:30:03.710Z,100751.58
2017-11-09T15:33:05.939Z,100749.73
2017-11-09T15:36:09.190Z,100742.25
2017-11-09T15:39:10.657Z,100742.58
2017-11-09T15:42:12.030Z,100749.94
2017-11-09T15:45:13.513Z,100739.63
2017-11-09T15:48:14.926Z,100735.97
2017-11-09T15:51:16.596Z,100723.90
2017-11-09T15:54:18.551Z,100719.95
2017-11-09T15:57:21.035Z,100723.38
2017-11-09T16:00:22.644Z,100720.26
2017-11-09T16:03:23.943Z,100730.48
2017-11-09T16:06:25.455Z,100735.59
2017-11-09T16:09:27.678Z,100729.09
2017-11-09T16:12:29.608Z,100728.53
2017-11-09T16:15:31.392Z,100717.25
2017-11-09T16:18:37.528Z,100725.44
2017-11-09T16:21:39.540Z,100714.59
2017-11-09T16:24:40.896Z,100704.05
2017-11-09T16:27:44.572Z,100689.53
2017-11-09T16:30:46.612Z,100693.88
2017-11-09T16:33:48.074Z,100688.25
2017-11-09T16:36:50.153Z,100698.47
2017-11-09T16:39:51.622Z,100698.66
2017-11-09T16:42:53.926Z,100708.90
2017-11-09T16:45:55.360Z,100713.94
2017-11-09T16:48:56.854Z,100704.20
2017-11-09T16:51:59.497Z,100696.26
2017-11-09T16:55:00.886Z,100696.59
2017-11-09T16:58:02.217Z,100710.46
2017-11-09T17:01:03.874Z,100729.08
2017-11-09T17:04:05.349Z,100736.25
2017-11-09T17:07:06.667Z,100729.39
2017-11-09T17:10:08.941Z,100732.84
2017-11-09T17:13:10.419Z,100729.08
2017-11-09T17:16:11.705Z,100733.31
2017-11-09T17:19:13.825Z,100739.73
2017-11-09T17:22:16.472Z,100752.48
2017-11-09T17:25:18.112Z,100750.07
2017-11-09T17:28:21.152Z,100738.67
2017-11-09T17:31:23.168Z,100732.10
2017-11-09T17:34:27.886Z,100730.20
2017-11-09T17:37:29.316Z,100740.28
2017-11-09T17:40:32.083Z,100727.51
2017-11-09T17:43:34.200Z,100730.20
2017-11-09T17:46:35.590Z,100727.30
2017-11-09T17:49:37.816Z,100732.56
2017-11-09T17:52:40.425Z,100728.14
2017-11-09T17:55:42.905Z,100730.78
2017-11-09T17:58:44.410Z,100729.41
2017-11-09T18:01:48.303Z,100731.95
2017-11-09T18:04:49.689Z,100734.41
2017-11-09T18:07:51.915Z,100740.93
2017-11-09T18:10:54.121Z,100743.16
2017-11-09T18:13:56.340Z,100759.09
2017-11-09T18:16:59.391Z,100745.39
2017-11-09T18:20:01.584Z,100753.77
2017-11-09T18:23:03.110Z,100754.34
2017-11-09T18:26:05.318Z,100777.50
2017-11-09T18:29:06.751Z,100779.02
2017-11-09T18:32:08.362Z,100769.44
2017-11-09T18:35:09.872Z,100777.11
2017-11-09T18:38:11.300Z,100775.62
2017-11-09T18:41:12.717Z,100784.81
2017-11-09T18:44:14.168Z,100782.95
2017-11-09T18:47:15.659Z,100790.47
2017-11-09T18:50:17.369Z,100783.72
2017-11-09T18:53:19.036Z,100767.06
2017-11-09T18:59:31.697Z,100772.52
2017-11-09T19:02:33.808Z,100763.90
2017-11-09T19:05:35.299Z,100765.93
2017-11-09T19:08:37.130Z,100761.22
2017-11-09T19:11:38.668Z,100754.16
2017-11-09T19:14:40.178Z,100758.18
2017-11-09T19:17:42.397Z,100753.05
2017-11-09T19:20:44.065Z,100760.16
2017-11-09T19:23:45.533Z,100744.09
2017-11-09T19:26:46.962Z,100740.28
2017-11-09T19:29:48.412Z,100728.76
2017-11-09T19:32:49.864Z,100726.77
2017-11-09T19:35:51.302Z,100703.57
2017-11-09T19:38:53.720Z,100709.24
2017-11-09T19:41:55.783Z,100705.11
2017-11-09T19:44:57.504Z,100707.67
2017-11-09T19:47:59.444Z,100718.05
2017-11-09T19:51:02.643Z,100727.88
2017-11-09T19:54:05.120Z,100729.45
2017-11-09T19:57:07.189Z,100735.18
2017-11-09T20:00:09.350Z,100729.28
2017-11-09T20:03:12.464Z,100719.44
2017-11-09T20:06:14.608Z,100719.15
2017-11-09T20:09:16.548Z,100710.22
2017-11-09T20:12:20.176Z,100726.16
2017-11-09T20:15:22.716Z,100722.86
2017-11-09T20:18:34.017Z,100726.52
2017-11-09T20:21:36.464Z,100734.83
2017-11-09T20:24:38.012Z,100724.17
2017-11-09T20:27:39.651Z,100724.58
2017-11-09T20:30:41.599Z,100714.34
2017-11-09T20:33:44.099Z,100723.67
2017-11-09T20:36:45.585Z,100708.52
2017-11-09T20:39:51.546Z,100705.55
2017-11-09T20:42:56.139Z,100690.66
2017-11-09T20:45:58.721Z,100699.63
2017-11-09T20:49:00.145Z,100697.45
2017-11-09T20:52:03.658Z,100692.05
2017-11-09T20:55:05.521Z,100700.16
2017-11-09T20:58:07.514Z,100700.89
2017-11-09T21:01:09.551Z,100714.13
2017-11-09T21:04:11.366Z,100706.47
2017-11-09T21:07:12.981Z,100695.64
2017-11-09T21:10:15.014Z,100699.78
2017-11-09T21:13:16.527Z,100710.39
2017-11-09T21:16:20.930Z,100702.14
2017-11-09T21:19:22.441Z,100707.62
2017-11-09T21:22:24.650Z,100704.75
2017-11-09T21:25:26.263Z,100709.95
2017-11-09T21:28:28.137Z,100721.22
2017-11-09T21:31:30.036Z,100708.84
2017-11-09T21:34:31.491Z,100698.94
2017-11-09T21:37:34.109Z,100712.50
2017-11-09T21:40:36.257Z,100687.00
2017-11-09T21:43:37.748Z,100693.38
2017-11-09T21:46:40.203Z,100677.31
2017-11-09T21:49:43.180Z,100669.39
2017-11-09T21:52:44.681Z,100668.56
2017-11-09T21:55:46.921Z,100660.61
2017-11-09T21:58:48.445Z,100660.60
2017-11-09T22:01:49.931Z,100651.88
2017-11-09T22:04:51.434Z,100647.92
2017-11-09T22:07:53.090Z,100648.89
2017-11-09T22:10:54.583Z,100634.23
2017-11-09T22:13:56.145Z,100641.83
2017-11-09T22:16:57.733Z,100638.77
2017-11-09T22:19:59.917Z,100641.39
2017-11-09T22:23:01.333Z,100643.25
2017-11-09T22:26:02.906Z,100641.90
2017-11-09T22:29:05.579Z,100644.61
2017-11-09T22:32:07.094Z,100636.50
2017-11-09T22:35:08.798Z,100638.49
2017-11-09T22:38:11.008Z,100635.52
2017-11-09T22:41:13.350Z,100635.69
2017-11-09T22:44:15.730Z,100612.23
2017-11-09T22:47:18.141Z,100596.72
2017-11-09T22:50:20.551Z,100612.23
2017-11-09T22:53:23.217Z,100605.21
2017-11-09T22:56:25.485Z,100629.70
2017-11-09T22:59:27.805Z,100632.53
2017-11-09T23:02:30.485Z,100625.00
2017-11-09T23:05:34.355Z,100624.93
2017-11-09T23:08:37.787Z,100611.91
2017-11-09T23:11:40.128Z,100623.81
2017-11-09T23:14:42.184Z,100616.74
2017-11-09T23:17:44.269Z,100619.72
2017-11-09T23:20:47.305Z,100617.70
2017-11-09T23:23:49.475Z,100621.70
2017-11-09T23:26:51.705Z,100632.81
2017-11-09T23:29:54.817Z,100630.40
2017-11-09T23:32:56.708Z,100623.09
2017-11-09T23:35:59.001Z,100608.12
2017-11-09T23:39:01.169Z,100610.70
2017-11-09T23:42:06.791Z,100610.76
2017-11-09T23:45:12.927Z,100588.73
2017-11-09T23:48:18.127Z,100590.50
2017-11-09T23:51:20.408Z,100585.52
2017-11-09T23:54:22.570Z,100589.14
2017-11-09T23:57:27.297Z,100586.34
